createdAt,value
2023-01-26T00:02:17.999Z,22.20
2023-01-26T00:04:46.175Z,21.90
2023-01-26T00:07:14.158Z,20.70
2023-01-26T00:09:42.296Z,20.50
2023-01-26T00:12:10.380Z,19.40
2023-01-26T00:14:51.062Z,19.60
2023-01-26T00:17:26.285Z,20.80
2023-01-26T00:19:55.411Z,20.60
2023-01-26T00:22:24.661Z,21.30
2023-01-26T00:24:56.131Z,19.20
2023-01-26T00:27:24.143Z,18.70
2023-01-26T00:29:52.136Z,17.80
2023-01-26T00:32:21.763Z,20.00
2023-01-26T00:34:50.061Z,19.10
2023-01-26T00:37:18.262Z,20.40
2023-01-26T00:39:46.349Z,19.90
2023-01-26T00:42:16.055Z,17.60
2023-01-26T00:44:44.154Z,18.00
2023-01-26T00:47:12.871Z,19.00
2023-01-26T00:49:41.451Z,17.30
2023-01-26T00:52:09.935Z,19.10
2023-01-26T00:54:37.828Z,17.90
2023-01-26T00:57:05.980Z,18.70
2023-01-26T00:59:34.733Z,20.50
2023-01-26T01:02:02.946Z,22.80
2023-01-26T01:04:31.627Z,20.10
2023-01-26T01:07:01.573Z,22.50
2023-01-26T01:09:30.128Z,21.60
2023-01-26T01:11:58.100Z,23.00
2023-01-26T01:14:26.159Z,21.60
2023-01-26T01:16:54.238Z,21.60
2023-01-26T01:19:22.166Z,21.00
2023-01-26T01:21:50.155Z,21.40
2023-01-26T01:24:18.299Z,20.60
2023-01-26T01:26:46.431Z,22.40
2023-01-26T01:29:15.850Z,24.30
2023-01-26T01:31:44.689Z,24.20
2023-01-26T01:34:12.764Z,23.50
2023-01-26T01:36:41.491Z,24.40
2023-01-26T01:39:09.546Z,24.30
2023-01-26T01:41:37.752Z,23.20
2023-01-26T01:44:17.895Z,26.20
2023-01-26T01:46:49.537Z,23.90
2023-01-26T01:49:33.975Z,26.40
2023-01-26T01:52:18.514Z,25.00
2023-01-26T01:54:49.168Z,25.10
2023-01-26T01:57:28.616Z,25.50
2023-01-26T02:00:04.263Z,25.50
2023-01-26T02:02:41.752Z,26.30
2023-01-26T02:05:43.472Z,26.30
2023-01-26T02:08:13.579Z,25.50
2023-01-26T02:10:43.836Z,25.20
2023-01-26T02:13:11.811Z,25.90
2023-01-26T02:15:43.270Z,27.50
2023-01-26T02:18:11.617Z,28.10
2023-01-26T02:20:42.903Z,26.70
2023-01-26T02:23:13.939Z,27.90
2023-01-26T02:25:54.252Z,27.90
2023-01-26T02:28:26.060Z,25.10
2023-01-26T02:30:54.775Z,26.40
2023-01-26T02:33:25.849Z,25.10
2023-01-26T02:36:02.836Z,25.80
2023-01-26T02:38:39.460Z,26.10
2023-01-26T02:41:12.254Z,24.30
2023-01-26T02:43:43.561Z,24.40
2023-01-26T02:46:11.599Z,24.20
2023-01-26T02:48:58.706Z,24.00
2023-01-26T02:51:26.794Z,24.30
2023-01-26T02:53:54.998Z,23.00
2023-01-26T02:56:27.366Z,25.10
2023-01-26T02:58:56.256Z,25.10
2023-01-26T03:01:24.429Z,24.20
2023-01-26T03:03:52.406Z,25.70
2023-01-26T03:06:21.275Z,26.10
2023-01-26T03:08:49.356Z,25.10
2023-01-26T03:11:17.647Z,24.50
2023-01-26T03:13:45.818Z,24.80
2023-01-26T03:16:18.579Z,24.80
2023-01-26T03:19:04.949Z,24.80
2023-01-26T03:21:52.221Z,27.60
2023-01-26T03:24:38.997Z,27.20
2023-01-26T03:27:28.214Z,27.00
2023-01-26T03:29:59.548Z,25.00
2023-01-26T03:32:31.052Z,27.00
2023-01-26T03:34:59.917Z,26.30
2023-01-26T03:37:27.960Z,23.70
2023-01-26T03:40:20.503Z,23.70
2023-01-26T03:43:07.537Z,24.70
2023-01-26T03:45:55.030Z,25.50
2023-01-26T03:48:42.981Z,26.40
2023-01-26T03:51:30.307Z,27.80
2023-01-26T03:54:18.099Z,28.30
2023-01-26T03:56:46.238Z,25.80
2023-01-26T03:59:16.941Z,26.70
2023-01-26T04:02:05.173Z,26.70
2023-01-26T04:04:54.472Z,27.80
2023-01-26T04:07:46.491Z,29.70
2023-01-26T04:10:15.402Z,28.20
2023-01-26T04:12:51.061Z,31.10
2023-01-26T04:15:39.163Z,32.00
2023-01-26T04:18:26.848Z,32.80
2023-01-26T04:21:15.171Z,30.80
2023-01-26T04:23:45.026Z,32.90
2023-01-26T04:26:13.557Z,31.00
2023-01-26T04:28:42.061Z,34.00
2023-01-26T04:31:10.209Z,37.10
2023-01-26T04:33:39.213Z,35.10
2023-01-26T04:36:08.262Z,35.10
2023-01-26T04:38:38.833Z,36.10
2023-01-26T04:41:07.711Z,34.20
2023-01-26T04:43:42.568Z,32.80
2023-01-26T04:46:11.441Z,32.00
2023-01-26T04:48:40.845Z,33.70
2023-01-26T04:51:13.669Z,31.80
2023-01-26T04:53:41.903Z,32.90
2023-01-26T04:56:22.806Z,32.90
2023-01-26T04:58:52.534Z,33.40
2023-01-26T05:01:20.722Z,31.90
2023-01-26T05:03:49.047Z,31.30
2023-01-26T07:23:34.975Z,32.90
2023-01-26T07:26:03.674Z,30.40
2023-01-26T07:28:31.621Z,30.80
2023-01-26T07:31:00.467Z,32.10
2023-01-26T07:33:29.177Z,34.80
2023-01-26T07:35:57.521Z,31.60
2023-01-26T07:38:26.271Z,29.10
2023-01-26T07:40:54.342Z,29.00
2023-01-26T07:43:22.177Z,32.00
2023-01-26T07:45:53.378Z,32.00
2023-01-26T07:48:23.238Z,33.20
2023-01-26T07:50:51.219Z,32.20
2023-01-26T07:53:19.562Z,31.40
2023-01-26T07:55:47.765Z,28.50
2023-01-26T07:58:15.792Z,32.20
2023-01-26T08:03:58.772Z,29.30
2023-01-26T08:06:26.791Z,31.50
2023-01-26T08:08:55.067Z,29.60
2023-01-26T11:03:42.018Z,13.60
2023-01-26T11:19:12.345Z,14.10
2023-01-26T11:21:55.759Z,13.70
2023-01-26T11:24:29.230Z,12.40
2023-01-26T11:27:34.491Z,13.10
2023-01-26T11:30:27.534Z,11.70
2023-01-26T11:33:26.622Z,12.50
2023-01-26T11:36:01.369Z,10.90
2023-01-26T11:38:35.728Z,11.90
2023-01-26T11:41:22.397Z,14.20
2023-01-26T11:44:15.183Z,13.80
2023-01-26T11:46:56.155Z,17.00
2023-01-26T11:49:48.075Z,14.80
2023-01-26T11:52:29.679Z,14.60
2023-01-26T11:55:03.577Z,16.90
2023-01-26T11:57:43.135Z,14.60
2023-01-26T12:00:29.403Z,15.30
2023-01-26T12:03:02.132Z,15.70
2023-01-26T12:05:35.524Z,14.80
2023-01-26T12:10:36.752Z,15.30
2023-01-26T12:13:06.702Z,15.20
2023-01-26T12:15:37.498Z,15.00
2023-01-26T12:18:09.265Z,13.60
2023-01-26T12:21:22.784Z,15.20
2023-01-26T12:23:58.540Z,16.30
2023-01-26T12:26:26.507Z,16.90
2023-01-26T12:29:09.303Z,18.40
2023-01-26T12:32:08.495Z,15.90
2023-01-26T12:34:36.541Z,17.50
2023-01-26T12:37:31.210Z,16.20
2023-01-26T12:40:33.486Z,15.20
2023-01-26T12:43:32.745Z,16.10
2023-01-26T12:46:01.162Z,17.20
2023-01-26T12:48:36.018Z,18.60
2023-01-26T12:51:11.438Z,17.10
2023-01-26T12:53:44.212Z,17.80
2023-01-26T12:56:41.056Z,18.40
2023-01-26T12:59:47.055Z,18.00
2023-01-26T13:02:25.288Z,17.60
2023-01-26T13:04:53.210Z,18.00
2023-01-26T13:07:32.206Z,19.40
2023-01-26T13:10:16.234Z,17.00
2023-01-26T13:13:01.849Z,17.20
2023-01-26T13:15:31.472Z,19.60
2023-01-26T13:18:01.242Z,19.80
2023-01-26T13:20:43.302Z,17.40
2023-01-26T13:23:37.245Z,17.50
2023-01-26T13:26:24.061Z,20.60
2023-01-26T13:28:52.522Z,19.10
2023-01-26T13:31:32.251Z,18.80
2023-01-26T13:34:02.596Z,20.10
2023-01-26T13:36:35.200Z,22.10
2023-01-26T13:39:13.171Z,19.30
2023-01-26T13:41:47.544Z,19.50
2023-01-26T13:44:18.762Z,18.70
2023-01-26T13:47:20.932Z,23.70
2023-01-26T13:49:50.739Z,20.80
2023-01-26T13:52:23.221Z,20.10
2023-01-26T13:54:53.076Z,21.30
2023-01-26T13:57:29.100Z,18.00
2023-01-26T14:00:01.752Z,19.60
2023-01-26T14:02:38.993Z,18.70
2023-01-26T14:05:08.606Z,19.80
2023-01-26T14:07:43.672Z,19.00
2023-01-26T14:10:17.022Z,18.40
2023-01-26T14:12:55.938Z,19.00
2023-01-26T14:15:29.306Z,19.70
2023-01-26T14:18:02.494Z,19.60
2023-01-26T14:20:32.092Z,19.60
2023-01-26T14:23:18.887Z,19.20
2023-01-26T14:26:18.933Z,19.10
2023-01-26T14:28:47.210Z,18.50
2023-01-26T14:31:25.501Z,18.80
2023-01-26T14:33:57.724Z,19.90
2023-01-26T14:36:28.530Z,19.70
2023-01-26T14:38:56.713Z,19.30
2023-01-26T14:41:30.012Z,17.90
2023-01-26T14:44:01.902Z,18.50
2023-01-26T14:46:54.798Z,18.20
2023-01-26T14:49:54.523Z,18.80
2023-01-26T14:52:25.137Z,19.00
2023-01-26T14:54:58.054Z,20.10
2023-01-26T14:57:27.350Z,20.60
2023-01-26T14:59:57.766Z,20.40
2023-01-26T15:02:42.527Z,19.30
2023-01-26T15:05:13.398Z,20.30
2023-01-26T15:07:43.271Z,22.30
2023-01-26T15:10:30.400Z,20.90
2023-01-26T15:13:11.368Z,21.70
2023-01-26T15:16:01.184Z,22.10
2023-01-26T15:18:33.321Z,21.90
2023-01-26T15:21:20.737Z,22.30
2023-01-26T15:23:52.400Z,20.10
2023-01-26T15:26:26.836Z,23.80
2023-01-26T15:28:56.091Z,24.30
2023-01-26T15:31:35.179Z,23.00
2023-01-26T15:34:05.092Z,26.00
2023-01-26T15:36:50.068Z,25.30
2023-01-26T15:39:21.399Z,26.20
2023-01-26T15:42:15.569Z,29.00
2023-01-26T15:44:43.648Z,28.90
2023-01-26T15:47:13.602Z,30.10
2023-01-26T15:49:42.942Z,25.60
2023-01-26T15:52:21.769Z,27.00
2023-01-26T15:54:51.935Z,29.20
2023-01-26T15:57:19.981Z,30.20
2023-01-26T15:59:48.452Z,30.30
2023-01-26T16:02:19.307Z,28.90
2023-01-26T16:04:47.470Z,31.10
2023-01-26T16:07:17.205Z,32.30
2023-01-26T16:09:45.656Z,33.20
2023-01-26T16:12:33.254Z,28.80
2023-01-26T16:15:02.693Z,29.50
2023-01-26T16:17:31.269Z,26.10
2023-01-26T16:20:00.466Z,28.60
2023-01-26T16:22:28.744Z,27.60
2023-01-26T16:24:56.688Z,26.30
2023-01-26T16:27:25.044Z,27.10
2023-01-26T16:29:53.573Z,25.60
2023-01-26T16:32:28.436Z,26.30
2023-01-26T16:34:56.483Z,28.50
2023-01-26T16:37:24.758Z,27.00
2023-01-26T16:39:52.828Z,25.50
2023-01-26T16:42:22.361Z,23.40
2023-01-26T16:44:50.723Z,22.20
2023-01-26T16:47:18.860Z,21.20
2023-01-26T16:49:50.328Z,22.20
2023-01-26T16:52:18.391Z,22.20
2023-01-26T16:54:48.414Z,21.80
2023-01-26T16:57:17.150Z,21.70
2023-01-26T16:59:45.353Z,21.10
2023-01-26T17:02:24.152Z,19.10
2023-01-26T17:04:52.288Z,21.40
2023-01-26T17:07:20.435Z,20.70
2023-01-26T17:09:48.417Z,20.70
2023-01-26T17:12:16.576Z,23.60
2023-01-26T17:14:44.571Z,22.40
2023-01-26T17:17:13.029Z,22.60
2023-01-26T17:19:41.096Z,19.70
2023-01-26T17:22:09.286Z,20.00
2023-01-26T17:24:37.235Z,21.90
2023-01-26T17:27:05.659Z,21.90
2023-01-26T17:29:34.061Z,23.20
2023-01-26T17:32:02.628Z,20.10
2023-01-26T17:34:30.779Z,20.20
2023-01-26T17:37:00.259Z,22.80
2023-01-26T17:39:28.337Z,23.10
2023-01-26T17:41:56.654Z,21.20
2023-01-26T17:44:24.882Z,19.70
2023-01-26T17:46:53.581Z,21.30
2023-01-26T17:49:22.416Z,23.10
2023-01-26T17:51:50.845Z,22.40
2023-01-26T17:54:19.329Z,22.90
2023-01-26T17:56:47.396Z,20.60
2023-01-26T17:59:15.569Z,19.30
2023-01-26T18:01:43.644Z,21.80
2023-01-26T18:04:11.620Z,21.20
2023-01-26T18:06:39.627Z,22.10
2023-01-26T18:09:08.201Z,21.60
2023-01-26T18:11:36.293Z,19.30
2023-01-26T18:14:04.658Z,20.70
2023-01-26T18:16:33.829Z,21.70
2023-01-26T18:19:04.637Z,21.40
2023-01-26T18:21:36.095Z,22.20
2023-01-26T18:24:05.415Z,21.80
2023-01-26T18:26:35.763Z,21.00
2023-01-26T18:29:04.924Z,21.80
2023-01-26T18:31:37.710Z,21.60
2023-01-26T18:34:06.201Z,20.40
2023-01-26T18:36:34.785Z,23.10
2023-01-26T18:39:05.654Z,20.70
2023-01-26T18:41:35.975Z,21.70
2023-01-26T18:44:04.307Z,22.40
2023-01-26T18:46:32.309Z,24.10
2023-01-26T18:49:01.485Z,21.40
2023-01-26T18:51:34.898Z,20.20
2023-01-26T18:54:04.476Z,21.80
2023-01-26T18:56:33.905Z,20.60
2023-01-26T18:59:02.166Z,20.50
2023-01-26T19:01:31.082Z,23.40
2023-01-26T19:04:02.289Z,23.10
2023-01-26T19:06:32.720Z,19.50
2023-01-26T19:09:05.772Z,21.70
2023-01-26T19:11:37.716Z,21.00
2023-01-26T19:14:07.271Z,22.60
2023-01-26T19:16:36.625Z,22.50
2023-01-26T19:19:05.414Z,20.90
2023-01-26T19:21:34.095Z,21.50
2023-01-26T19:24:06.513Z,21.60
2023-01-26T19:26:35.006Z,23.20
2023-01-26T19:29:04.116Z,23.50
2023-01-26T19:31:32.960Z,23.00
2023-01-26T19:34:02.794Z,22.90
2023-01-26T19:36:32.241Z,23.60
2023-01-26T19:39:01.609Z,22.00
2023-01-26T19:41:29.995Z,22.40
2023-01-26T19:43:58.076Z,23.20
2023-01-26T19:46:26.880Z,24.50
2023-01-26T19:48:55.147Z,26.40
2023-01-26T19:51:25.148Z,24.70
2023-01-26T19:56:30.827Z,22.90
2023-01-26T19:59:00.578Z,25.10
2023-01-26T20:01:33.225Z,24.70
2023-01-26T20:04:03.724Z,24.40
2023-01-26T20:06:33.393Z,24.60
2023-01-26T20:09:03.601Z,22.80
2023-01-26T20:11:32.238Z,22.30
2023-01-26T20:14:06.296Z,21.90
2023-01-26T20:16:35.405Z,23.80
2023-01-26T20:19:05.472Z,24.20
2023-01-26T20:21:34.354Z,24.80
2023-01-26T20:24:06.033Z,23.80
2023-01-26T20:26:35.580Z,23.70
2023-01-26T20:29:04.830Z,25.40
2023-01-26T20:31:33.719Z,24.00
2023-01-26T20:34:02.673Z,24.80
2023-01-26T20:36:32.004Z,25.50
2023-01-26T20:39:00.580Z,22.60
2023-01-26T20:41:32.454Z,23.10
2023-01-26T20:44:02.958Z,25.40
2023-01-26T20:46:39.204Z,25.90
2023-01-26T20:49:08.821Z,23.90
2023-01-26T20:51:38.364Z,21.80
2023-01-26T20:54:07.849Z,23.00
2023-01-26T20:56:36.645Z,22.80
2023-01-26T20:59:07.573Z,24.00
2023-01-26T21:01:36.686Z,24.90
2023-01-26T21:04:05.295Z,25.40
2023-01-26T21:06:33.983Z,23.70
2023-01-26T21:09:02.291Z,23.10
2023-01-26T21:11:31.636Z,26.10
2023-01-26T21:14:03.101Z,24.50
2023-01-26T21:16:32.232Z,25.30
2023-01-26T21:19:00.224Z,23.30
2023-01-26T21:21:28.631Z,23.20
2023-01-26T21:23:56.820Z,22.60
2023-01-26T21:26:25.724Z,24.50
2023-01-26T21:28:55.962Z,22.50
2023-01-26T21:31:27.613Z,23.70
2023-01-26T21:33:55.733Z,23.20
2023-01-26T21:36:25.655Z,23.10
2023-01-26T21:38:57.000Z,22.20
2023-01-26T21:41:46.391Z,24.70
2023-01-26T21:44:16.317Z,24.70
2023-01-26T21:46:45.533Z,23.70
2023-01-26T21:49:13.773Z,22.80
2023-01-26T21:52:03.266Z,21.20
2023-01-26T21:54:31.929Z,22.20
2023-01-26T21:57:00.721Z,23.30
2023-01-26T21:59:32.362Z,20.60
2023-01-26T22:02:00.948Z,22.50
2023-01-26T22:04:30.558Z,24.60
2023-01-26T22:06:59.846Z,22.50
2023-01-26T22:09:28.473Z,21.50
2023-01-26T22:11:56.884Z,20.80
2023-01-26T22:14:26.432Z,21.60
2023-01-26T22:16:55.291Z,22.80
2023-01-26T22:19:23.388Z,20.60
2023-01-26T22:21:51.625Z,21.10
2023-01-26T22:24:20.104Z,20.90
2023-01-26T22:26:49.041Z,21.40
2023-01-26T22:29:17.041Z,20.70
2023-01-26T22:31:45.943Z,21.70
2023-01-26T22:34:14.388Z,20.40
2023-01-26T22:36:43.041Z,22.30
2023-01-26T22:39:12.474Z,21.50
2023-01-26T22:41:41.113Z,20.40
2023-01-26T22:44:09.490Z,20.10
2023-01-26T22:46:37.699Z,20.50
2023-01-26T22:49:06.281Z,20.70
2023-01-26T22:51:37.613Z,22.00
2023-01-26T22:54:06.045Z,22.00
2023-01-26T22:56:35.304Z,21.00
2023-01-26T22:59:03.610Z,21.40
2023-01-26T23:01:34.051Z,18.80
2023-01-26T23:04:02.900Z,21.20
2023-01-26T23:06:31.276Z,19.60
2023-01-26T23:09:01.301Z,21.20
2023-01-26T23:11:30.698Z,22.00
2023-01-26T23:13:58.956Z,22.80
2023-01-26T23:16:27.435Z,21.40
2023-01-26T23:18:57.200Z,20.80
2023-01-26T23:21:26.789Z,20.80
2023-01-26T23:26:48.100Z,23.70
2023-01-26T23:29:16.341Z,21.60
2023-01-26T23:31:45.180Z,23.70
2023-01-26T23:34:13.280Z,20.80
2023-01-26T23:36:41.446Z,21.90
2023-01-26T23:39:09.702Z,21.10
2023-01-26T23:41:37.860Z,21.60
2023-01-26T23:44:05.900Z,21.80
2023-01-26T23:46:36.250Z,22.40
2023-01-26T23:49:04.283Z,22.10
2023-01-26T23:51:32.668Z,21.10
2023-01-26T23:54:00.917Z,20.30
2023-01-26T23:56:29.642Z,20.30
2023-01-26T23:58:57.974Z,21.70
